createdAt,value
2019-05-11T00:00:32.646Z,998.08
2019-05-11T00:01:32.656Z,998.06
2019-05-11T00:02:32.614Z,998.03
2019-05-11T00:03:32.603Z,998.15
2019-05-11T00:04:37.616Z,998.09
2019-05-11T00:05:32.593Z,998.13
2019-05-11T00:06:32.589Z,998.12
2019-05-11T00:07:32.558Z,998.11
2019-05-11T00:08:32.546Z,998.06
2019-05-11T00:09:32.535Z,998.05
2019-05-11T00:10:32.538Z,998.02
2019-05-11T00:11:32.520Z,998.04
2019-05-11T00:12:32.505Z,998.00
2019-05-11T00:13:32.490Z,997.89
2019-05-11T00:14:32.479Z,997.89
2019-05-11T00:15:37.501Z,997.89
2019-05-11T00:16:32.457Z,997.88
2019-05-11T00:17:32.456Z,997.86
2019-05-11T00:18:32.436Z,997.88
2019-05-11T00:19:32.430Z,997.80
2019-05-11T00:20:32.430Z,997.77
2019-05-11T00:21:32.405Z,997.73
2019-05-11T00:22:32.394Z,997.69
2019-05-11T00:23:32.379Z,997.64
2019-05-11T00:24:32.377Z,997.57
2019-05-11T00:25:32.369Z,997.49
2019-05-11T00:26:37.379Z,997.51
2019-05-11T00:27:32.335Z,997.42
2019-05-11T00:28:32.327Z,997.43
2019-05-11T00:29:32.326Z,997.48
2019-05-11T00:30:32.300Z,997.41
2019-05-11T00:31:32.320Z,997.41
2019-05-11T00:32:32.279Z,997.42
2019-05-11T00:33:32.267Z,997.36
2019-05-11T00:34:32.256Z,997.36
2019-05-11T00:35:32.263Z,997.38
2019-05-11T00:36:32.264Z,997.34
2019-05-11T00:37:37.244Z,997.36
2019-05-11T00:38:32.212Z,997.30
2019-05-11T00:39:32.200Z,997.23
2019-05-11T00:40:32.201Z,997.22
2019-05-11T00:41:32.201Z,997.13
2019-05-11T00:42:32.166Z,997.20
2019-05-11T00:43:32.157Z,997.16
2019-05-11T00:44:32.145Z,997.20
2019-05-11T00:45:32.134Z,997.17
2019-05-11T00:46:32.137Z,997.06
2019-05-11T00:47:32.136Z,997.08
2019-05-11T00:48:37.121Z,997.03
2019-05-11T00:49:32.090Z,997.03
2019-05-11T00:50:39.234Z,997.08
2019-05-11T00:51:33.087Z,997.10
2019-05-11T00:52:32.064Z,997.05
2019-05-11T00:53:32.043Z,997.07
2019-05-11T00:54:32.033Z,997.04
2019-05-11T00:55:32.023Z,996.95
2019-05-11T00:56:32.021Z,996.97
2019-05-11T00:57:32.001Z,996.94
2019-05-11T00:58:32.000Z,996.86
2019-05-11T00:59:36.999Z,996.78
2019-05-11T01:00:31.976Z,996.86
2019-05-11T01:01:31.967Z,996.82
2019-05-11T01:02:31.972Z,996.84
2019-05-11T01:03:31.933Z,996.82
2019-05-11T01:04:31.931Z,996.83
2019-05-11T01:05:31.923Z,996.75
2019-05-11T01:06:31.909Z,996.80
2019-05-11T01:07:31.888Z,996.77
2019-05-11T01:08:31.877Z,996.71
2019-05-11T01:09:31.865Z,996.69
2019-05-11T01:10:42.243Z,996.71
2019-05-11T01:11:32.856Z,996.67
2019-05-11T01:12:31.834Z,996.69
2019-05-11T01:13:31.824Z,996.68
2019-05-11T01:14:31.819Z,996.76
2019-05-11T01:15:31.802Z,996.68
2019-05-11T01:16:31.787Z,996.66
2019-05-11T01:17:31.790Z,996.72
2019-05-11T01:18:31.766Z,996.69
2019-05-11T01:19:31.757Z,996.62
2019-05-11T01:20:31.747Z,996.66
2019-05-11T01:21:36.756Z,996.72
2019-05-11T01:22:31.749Z,996.59
2019-05-11T01:23:31.764Z,996.63
2019-05-11T01:24:31.698Z,996.63
2019-05-11T01:25:31.687Z,996.61
2019-05-11T01:26:31.782Z,996.59
2019-05-11T01:27:31.685Z,996.62
2019-05-11T01:28:31.654Z,996.63
2019-05-11T01:29:31.643Z,996.56
2019-05-11T01:30:31.634Z,996.63
2019-05-11T01:31:31.622Z,996.61
2019-05-11T01:32:36.650Z,996.52
2019-05-11T01:33:31.603Z,996.48
2019-05-11T01:34:31.589Z,996.32
2019-05-11T01:35:31.578Z,996.29
2019-05-11T01:36:31.565Z,996.20
2019-05-11T01:37:31.565Z,996.20
2019-05-11T01:38:31.545Z,996.18
2019-05-11T01:39:31.538Z,996.26
2019-05-11T01:40:31.526Z,996.19
2019-05-11T01:41:31.512Z,996.27
2019-05-11T01:42:31.508Z,996.23
2019-05-11T01:43:36.523Z,996.26
2019-05-11T01:44:31.480Z,996.21
2019-05-11T01:45:31.465Z,996.15
2019-05-11T01:46:31.453Z,996.14
2019-05-11T01:47:31.453Z,996.11
2019-05-11T01:48:31.433Z,996.04
2019-05-11T01:49:31.419Z,996.13
2019-05-11T01:50:31.417Z,996.02
2019-05-11T01:51:31.399Z,996.05
2019-05-11T01:52:31.401Z,995.99
2019-05-11T01:53:31.376Z,995.99
2019-05-11T01:54:36.389Z,996.00
2019-05-11T01:55:31.361Z,996.00
2019-05-11T01:56:31.344Z,996.02
2019-05-11T01:57:31.358Z,995.98
2019-05-11T01:58:31.324Z,995.94
2019-05-11T01:59:31.313Z,995.96
2019-05-11T02:00:31.300Z,995.83
2019-05-11T02:01:31.290Z,995.81
2019-05-11T02:02:31.290Z,995.70
2019-05-11T02:03:31.265Z,995.74
2019-05-11T02:04:31.254Z,995.65
2019-05-11T02:05:36.265Z,995.61
2019-05-11T02:06:31.234Z,995.58
2019-05-11T02:07:31.232Z,995.57
2019-05-11T02:08:31.257Z,995.57
2019-05-11T02:09:31.200Z,995.56
2019-05-11T02:10:31.188Z,995.53
2019-05-11T02:11:31.178Z,995.48
2019-05-11T02:12:31.193Z,995.49
2019-05-11T02:13:31.155Z,995.49
2019-05-11T02:14:31.152Z,995.40
2019-05-11T02:15:31.131Z,995.53
2019-05-11T02:16:36.142Z,995.49
2019-05-11T02:17:31.109Z,995.52
2019-05-11T02:18:31.111Z,995.59
2019-05-11T02:19:31.092Z,995.54
2019-05-11T02:20:31.076Z,995.47
2019-05-11T02:21:31.065Z,995.45
2019-05-11T02:22:31.054Z,995.41
2019-05-11T02:23:31.054Z,995.35
2019-05-11T02:24:31.036Z,995.31
2019-05-11T02:25:31.025Z,995.40
2019-05-11T02:26:31.010Z,995.46
2019-05-11T02:27:36.018Z,995.42
2019-05-11T02:28:31.002Z,995.43
2019-05-11T02:29:30.976Z,995.36
2019-05-11T02:30:30.966Z,995.51
2019-05-11T02:31:30.967Z,995.47
2019-05-11T02:32:30.944Z,995.40
2019-05-11T02:33:30.943Z,995.37
2019-05-11T02:34:30.924Z,995.41
2019-05-11T02:35:30.909Z,995.43
2019-05-11T02:36:30.905Z,995.50
2019-05-11T02:37:30.885Z,995.54
2019-05-11T02:38:35.908Z,995.50
2019-05-11T02:39:30.865Z,995.50
2019-05-11T02:40:30.853Z,995.48
2019-05-11T02:41:36.123Z,995.47
2019-05-11T02:42:31.840Z,995.49
2019-05-11T02:43:30.853Z,995.49
2019-05-11T02:44:30.808Z,995.52
2019-05-11T02:45:30.802Z,995.55
2019-05-11T02:46:30.786Z,995.65
2019-05-11T02:47:30.776Z,995.62
2019-05-11T02:48:30.770Z,995.54
2019-05-11T02:49:35.802Z,995.59
2019-05-11T02:50:30.740Z,995.49
2019-05-11T02:51:30.735Z,995.49
2019-05-11T02:52:30.734Z,995.44
2019-05-11T02:53:30.714Z,995.45
2019-05-11T02:54:30.715Z,995.38
2019-05-11T02:55:30.689Z,995.34
2019-05-11T02:56:30.685Z,995.33
2019-05-11T02:57:30.666Z,995.41
2019-05-11T02:58:30.683Z,995.33
2019-05-11T02:59:30.696Z,995.34
2019-05-11T03:00:35.652Z,995.31
2019-05-11T03:01:30.629Z,995.28
2019-05-11T03:02:30.610Z,995.26
2019-05-11T03:03:30.601Z,995.22
2019-05-11T03:04:30.598Z,995.22
2019-05-11T03:05:30.579Z,995.17
2019-05-11T03:06:30.566Z,995.27
2019-05-11T03:07:30.552Z,995.22
2019-05-11T03:08:30.543Z,995.19
2019-05-11T03:09:30.542Z,995.16
2019-05-11T03:10:30.553Z,995.15
2019-05-11T03:11:53.658Z,995.19
2019-05-11T03:12:31.494Z,995.17
2019-05-11T03:13:30.504Z,995.12
2019-05-11T03:14:30.495Z,995.14
2019-05-11T03:15:30.466Z,995.14
2019-05-11T03:16:30.453Z,995.09
2019-05-11T03:17:30.440Z,995.05
2019-05-11T03:18:30.432Z,994.92
2019-05-11T03:19:30.436Z,994.90
2019-05-11T03:20:30.405Z,994.98
2019-05-11T03:21:30.395Z,994.90
2019-05-11T03:22:35.407Z,994.98
2019-05-11T03:23:30.386Z,994.92
2019-05-11T03:24:30.374Z,994.97
2019-05-11T03:25:30.351Z,995.03
2019-05-11T03:26:30.340Z,995.00
2019-05-11T03:27:30.338Z,995.05
2019-05-11T03:28:30.318Z,994.95
2019-05-11T03:29:30.324Z,994.98
2019-05-11T03:30:30.302Z,994.99
2019-05-11T03:31:30.285Z,994.98
2019-05-11T03:32:30.275Z,994.99
2019-05-11T03:33:35.283Z,994.99
2019-05-11T03:34:30.261Z,995.00
2019-05-11T03:35:30.256Z,994.98
2019-05-11T03:36:30.231Z,995.03
2019-05-11T03:37:30.217Z,995.03
2019-05-11T03:38:30.207Z,995.02
2019-05-11T03:39:30.210Z,995.03
2019-05-11T03:40:30.205Z,994.99
2019-05-11T03:41:30.176Z,995.02
2019-05-11T03:42:30.181Z,994.96
2019-05-11T03:43:30.150Z,994.85
2019-05-11T03:44:35.186Z,994.87
2019-05-11T03:45:30.128Z,994.85
2019-05-11T03:46:30.118Z,994.81
2019-05-11T03:47:30.114Z,994.80
2019-05-11T03:48:30.117Z,994.76
2019-05-11T03:49:30.085Z,994.86
2019-05-11T03:50:30.099Z,994.85
2019-05-11T03:51:30.067Z,994.88
2019-05-11T03:52:30.049Z,994.80
2019-05-11T03:53:30.040Z,994.87
2019-05-11T03:54:30.028Z,994.88
2019-05-11T03:55:35.052Z,994.80
2019-05-11T03:56:30.006Z,994.84
2019-05-11T03:57:29.994Z,994.79
2019-05-11T03:58:29.990Z,994.85
2019-05-11T03:59:29.986Z,994.82
2019-05-11T04:00:29.978Z,994.77
2019-05-11T04:01:29.951Z,994.80
2019-05-11T04:02:29.942Z,994.81
2019-05-11T04:03:30.003Z,994.79
2019-05-11T04:04:29.921Z,994.80
2019-05-11T04:05:29.923Z,994.82
2019-05-11T04:06:34.922Z,994.81
2019-05-11T04:07:29.886Z,994.79
2019-05-11T04:08:29.873Z,994.80
2019-05-11T04:09:29.872Z,994.75
2019-05-11T04:10:29.865Z,994.75
2019-05-11T04:11:29.842Z,994.80
2019-05-11T04:12:34.764Z,994.81
2019-05-11T04:13:30.818Z,994.91
2019-05-11T04:14:29.806Z,994.86
2019-05-11T04:15:29.820Z,994.97
2019-05-11T04:16:29.783Z,994.92
2019-05-11T04:17:34.796Z,995.01
2019-05-11T04:18:29.763Z,995.07
2019-05-11T04:19:29.756Z,995.00
2019-05-11T04:20:29.750Z,994.95
2019-05-11T04:21:29.745Z,994.91
2019-05-11T04:22:29.720Z,994.82
2019-05-11T04:23:29.707Z,994.85
2019-05-11T04:24:29.695Z,994.85
2019-05-11T04:25:29.700Z,994.82
2019-05-11T04:26:29.688Z,994.94
2019-05-11T04:27:29.686Z,994.91
2019-05-11T04:28:34.673Z,994.96
2019-05-11T04:29:29.640Z,994.97
2019-05-11T04:30:29.640Z,994.99
2019-05-11T04:31:29.623Z,995.05
2019-05-11T04:32:29.607Z,995.04
2019-05-11T04:33:33.020Z,995.01
2019-05-11T04:34:29.581Z,994.98
2019-05-11T04:35:29.591Z,994.89
2019-05-11T04:36:29.574Z,994.81
2019-05-11T04:37:29.551Z,994.86
2019-05-11T04:38:29.549Z,994.92
2019-05-11T04:39:34.555Z,994.80
2019-05-11T04:40:29.517Z,994.84
2019-05-11T04:41:29.519Z,994.86
2019-05-11T04:42:29.499Z,994.81
2019-05-11T04:43:29.481Z,994.80
2019-05-11T04:44:29.476Z,994.83
2019-05-11T04:45:29.462Z,994.84
2019-05-11T04:46:29.536Z,994.79
2019-05-11T04:47:29.437Z,994.86
2019-05-11T04:48:29.434Z,994.84
2019-05-11T04:49:29.419Z,994.83
2019-05-11T04:50:34.426Z,994.81
2019-05-11T04:51:29.409Z,994.84
2019-05-11T04:52:29.384Z,994.88
2019-05-11T04:53:29.371Z,994.80
2019-05-11T04:54:29.365Z,994.77
2019-05-11T04:55:29.366Z,994.86
2019-05-11T04:56:29.348Z,994.82
2019-05-11T04:57:29.326Z,994.82
2019-05-11T04:58:29.313Z,994.84
2019-05-11T04:59:29.307Z,994.80
2019-05-11T05:00:29.303Z,994.80
2019-05-11T05:01:34.323Z,994.79
2019-05-11T05:02:29.281Z,994.79
2019-05-11T05:03:40.259Z,994.78
2019-05-11T05:04:30.248Z,994.73
2019-05-11T05:05:29.237Z,994.79
2019-05-11T05:06:29.249Z,994.76
2019-05-11T05:07:29.219Z,994.82
2019-05-11T05:08:29.209Z,994.81
2019-05-11T05:09:29.297Z,994.78
2019-05-11T05:10:29.185Z,994.84
2019-05-11T05:11:30.603Z,994.76
2019-05-11T05:12:35.178Z,994.77
2019-05-11T05:13:29.940Z,994.77
2019-05-11T05:14:29.136Z,994.83
2019-05-11T05:15:29.126Z,994.81
2019-05-11T05:16:31.329Z,994.85
2019-05-11T05:17:29.103Z,994.76
2019-05-11T05:18:29.095Z,994.81
2019-05-11T05:19:29.082Z,994.87
2019-05-11T05:20:29.069Z,994.83
2019-05-11T05:21:29.070Z,994.87
2019-05-11T05:22:29.047Z,994.88
2019-05-11T05:23:34.060Z,994.83
2019-05-11T05:24:29.029Z,994.84
2019-05-11T05:25:29.014Z,994.85
2019-05-11T05:26:29.017Z,994.85
2019-05-11T05:27:29.001Z,994.83
2019-05-11T05:28:28.993Z,994.85
2019-05-11T05:29:28.970Z,994.92
2019-05-11T05:30:28.958Z,994.91
2019-05-11T05:31:28.949Z,994.97
2019-05-11T05:32:28.948Z,994.95
2019-05-11T05:33:28.935Z,994.91
2019-05-11T05:34:33.973Z,994.91
2019-05-11T05:35:28.904Z,994.96
2019-05-11T05:36:28.895Z,994.85
2019-05-11T05:37:28.895Z,994.92
2019-05-11T05:38:28.872Z,994.94
2019-05-11T05:39:28.865Z,994.91
2019-05-11T05:40:28.847Z,994.93
2019-05-11T05:41:28.835Z,994.95
2019-05-11T05:42:28.839Z,994.93
2019-05-11T05:43:28.814Z,994.94
2019-05-11T05:44:28.807Z,994.98
2019-05-11T05:45:33.824Z,995.02
2019-05-11T05:46:28.780Z,995.03
2019-05-11T05:47:28.782Z,994.98
2019-05-11T05:48:28.758Z,995.04
2019-05-11T05:49:28.746Z,994.98
2019-05-11T05:50:28.739Z,994.96
2019-05-11T05:51:28.726Z,994.98
2019-05-11T05:52:28.723Z,995.06
2019-05-11T05:53:28.704Z,995.03
2019-05-11T05:54:28.690Z,994.96
2019-05-11T05:55:28.680Z,995.00
2019-05-11T05:56:33.696Z,995.04
2019-05-11T05:57:28.674Z,995.07
2019-05-11T05:58:28.649Z,995.01
2019-05-11T05:59:28.640Z,995.06
2019-05-11T06:00:28.627Z,995.04
2019-05-11T06:01:28.617Z,994.98
2019-05-11T06:02:28.647Z,995.03
2019-05-11T06:03:28.593Z,995.02
2019-05-11T06:04:28.579Z,994.99
2019-05-11T06:05:28.569Z,994.97
2019-05-11T06:06:28.556Z,995.01
2019-05-11T06:07:33.592Z,995.04
2019-05-11T06:08:28.536Z,994.94
2019-05-11T06:09:28.524Z,994.99
2019-05-11T06:10:28.511Z,994.97
2019-05-11T06:11:28.512Z,994.88
2019-05-11T06:12:28.491Z,994.94
2019-05-11T06:13:43.922Z,994.95
2019-05-11T06:14:29.467Z,994.94
2019-05-11T06:15:28.460Z,994.96
2019-05-11T06:16:28.485Z,994.82
2019-05-11T06:17:28.433Z,994.91
2019-05-11T06:18:33.461Z,994.95
2019-05-11T06:19:28.435Z,994.89
2019-05-11T06:20:28.407Z,994.87
2019-05-11T06:21:28.394Z,994.89
2019-05-11T06:22:28.388Z,994.95
2019-05-11T06:23:28.375Z,994.87
2019-05-11T06:24:28.354Z,994.91
2019-05-11T06:25:28.346Z,994.91
2019-05-11T06:26:28.333Z,994.92
2019-05-11T06:27:28.321Z,994.93
2019-05-11T06:28:28.321Z,994.93
2019-05-11T06:29:33.322Z,994.99
2019-05-11T06:30:28.293Z,994.91
2019-05-11T06:31:28.275Z,994.89
2019-05-11T06:32:28.266Z,994.91
2019-05-11T06:33:28.275Z,994.92
2019-05-11T06:34:28.248Z,994.93
2019-05-11T06:35:28.237Z,994.89
2019-05-11T06:36:28.222Z,994.93
2019-05-11T06:37:28.210Z,994.95
2019-05-11T06:38:28.209Z,994.93
2019-05-11T06:39:28.189Z,994.93
2019-05-11T06:40:33.202Z,994.97
2019-05-11T06:41:28.169Z,994.94
2019-05-11T06:42:28.159Z,994.92
2019-05-11T06:43:28.166Z,994.96
2019-05-11T06:44:28.141Z,994.95
2019-05-11T06:45:28.124Z,994.94
2019-05-11T06:46:28.115Z,994.94
2019-05-11T06:47:28.101Z,994.99
2019-05-11T06:48:28.102Z,994.96
2019-05-11T06:49:28.085Z,994.93
2019-05-11T06:50:28.070Z,994.97
2019-05-11T06:51:33.079Z,994.96
2019-05-11T06:52:28.055Z,994.99
2019-05-11T06:53:28.054Z,994.97
2019-05-11T06:54:28.029Z,994.97
2019-05-11T06:55:28.018Z,994.94
2019-05-11T06:56:28.004Z,994.91
2019-05-11T06:57:28.003Z,994.96
2019-05-11T06:58:27.993Z,994.92
2019-05-11T06:59:27.973Z,994.88
2019-05-11T07:00:27.965Z,994.98
2019-05-11T07:01:27.951Z,994.96
2019-05-11T07:02:32.961Z,994.92
2019-05-11T07:03:27.955Z,994.93
2019-05-11T07:04:27.916Z,994.94
2019-05-11T07:05:27.905Z,994.99
2019-05-11T07:06:30.493Z,995.06
2019-05-11T07:07:27.890Z,995.09
2019-05-11T07:08:27.874Z,995.05
2019-05-11T07:09:27.875Z,995.03
2019-05-11T07:10:27.851Z,995.03
2019-05-11T07:11:27.840Z,995.03
2019-05-11T07:12:27.965Z,995.01
2019-05-11T07:13:32.913Z,994.97
2019-05-11T07:14:27.818Z,994.92
2019-05-11T07:15:27.797Z,994.91
2019-05-11T07:16:27.787Z,994.98
2019-05-11T07:17:27.783Z,994.98
2019-05-11T07:18:27.762Z,994.97
2019-05-11T07:19:27.761Z,994.95
2019-05-11T07:20:27.745Z,994.90
2019-05-11T07:21:27.728Z,994.95
2019-05-11T07:22:27.716Z,995.01
2019-05-11T07:23:27.707Z,995.01
2019-05-11T07:24:32.777Z,994.95
2019-05-11T07:25:27.685Z,994.95
2019-05-11T07:26:27.683Z,995.00
2019-05-11T07:27:27.665Z,995.02
2019-05-11T07:28:27.648Z,995.00
2019-05-11T07:29:27.648Z,994.95
2019-05-11T07:30:27.626Z,995.04
2019-05-11T07:31:27.615Z,994.99
2019-05-11T07:32:29.379Z,995.02
2019-05-11T07:33:28.678Z,995.02
2019-05-11T07:34:27.834Z,995.03
2019-05-11T07:35:32.592Z,995.03
2019-05-11T07:36:28.239Z,995.03
2019-05-11T07:37:27.988Z,995.05
2019-05-11T07:38:27.964Z,995.09
2019-05-11T07:39:27.944Z,995.06
2019-05-11T07:40:28.015Z,995.10
2019-05-11T07:41:28.095Z,995.10
2019-05-11T07:42:28.594Z,995.14
2019-05-11T07:43:28.872Z,995.17
2019-05-11T07:44:35.784Z,995.16
2019-05-11T07:45:28.524Z,995.16
2019-05-11T07:46:32.464Z,995.09
2019-05-11T07:47:27.910Z,995.12
2019-05-11T07:48:27.993Z,995.15
2019-05-11T07:49:29.235Z,995.15
2019-05-11T07:50:28.428Z,995.01
2019-05-11T07:51:28.811Z,995.07
2019-05-11T07:52:28.769Z,995.16
2019-05-11T07:53:28.048Z,995.20
2019-05-11T07:54:28.110Z,995.18
2019-05-11T07:55:28.149Z,995.18
2019-05-11T07:56:28.531Z,995.27
2019-05-11T07:57:32.343Z,995.27
2019-05-11T07:58:28.557Z,995.21
2019-05-11T07:59:29.004Z,995.26
2019-05-11T08:00:28.049Z,995.30
2019-05-11T08:01:28.170Z,995.27
2019-05-11T08:02:28.164Z,995.30
2019-05-11T08:03:28.333Z,995.28
2019-05-11T08:04:28.810Z,995.27
2019-05-11T08:05:28.364Z,995.27
2019-05-11T08:06:28.595Z,995.34
2019-05-11T08:07:28.530Z,995.29
2019-05-11T08:08:32.218Z,995.37
2019-05-11T08:09:27.954Z,995.29
2019-05-11T08:10:28.169Z,995.29
2019-05-11T08:11:30.807Z,995.31
2019-05-11T08:12:28.521Z,995.31
2019-05-11T08:13:28.229Z,995.35
2019-05-11T08:14:28.730Z,995.43
2019-05-11T08:15:28.411Z,995.46
2019-05-11T08:16:28.464Z,995.45
2019-05-11T08:17:28.609Z,995.47
2019-05-11T08:18:28.230Z,995.44
2019-05-11T08:19:32.098Z,995.42
2019-05-11T08:20:28.116Z,995.46
2019-05-11T08:21:28.381Z,995.45
2019-05-11T08:22:28.438Z,995.46
2019-05-11T08:23:28.524Z,995.45
2019-05-11T08:24:28.446Z,995.49
2019-05-11T08:25:28.672Z,995.57
2019-05-11T08:26:28.305Z,995.49
2019-05-11T08:27:28.593Z,995.54
2019-05-11T08:28:28.809Z,995.63
2019-05-11T08:29:27.860Z,995.60
2019-05-11T08:30:31.981Z,995.59
2019-05-11T08:31:27.985Z,995.61
2019-05-11T08:32:28.691Z,995.64
2019-05-11T08:33:28.392Z,995.65
2019-05-11T08:34:28.582Z,995.71
2019-05-11T08:35:30.951Z,995.70
2019-05-11T08:36:28.906Z,995.72
2019-05-11T08:37:28.430Z,995.71
2019-05-11T08:38:28.520Z,995.74
2019-05-11T08:39:28.850Z,995.76
2019-05-11T08:40:28.824Z,995.69
2019-05-11T08:41:31.848Z,995.71
2019-05-11T08:42:28.866Z,995.68
2019-05-11T08:43:28.517Z,995.73
2019-05-11T08:44:28.709Z,995.73
2019-05-11T08:45:27.938Z,995.75
2019-05-11T08:46:27.906Z,995.79
2019-05-11T08:47:28.368Z,995.74
2019-05-11T08:48:28.244Z,995.75
2019-05-11T08:49:28.706Z,995.79
2019-05-11T08:50:27.967Z,995.79
2019-05-11T08:51:28.038Z,995.73
2019-05-11T08:52:31.728Z,995.74
2019-05-11T08:53:28.415Z,995.77
2019-05-11T08:54:28.859Z,995.84
2019-05-11T08:55:28.786Z,995.72
2019-05-11T08:56:28.740Z,995.71
2019-05-11T08:57:28.490Z,995.89
2019-05-11T08:58:27.807Z,995.87
2019-05-11T08:59:27.963Z,995.79
2019-05-11T09:00:28.374Z,995.83
2019-05-11T09:01:28.702Z,995.83
2019-05-11T09:02:27.810Z,995.80
2019-05-11T09:03:31.612Z,995.80
2019-05-11T09:04:28.804Z,995.81
2019-05-11T09:05:28.035Z,995.84
2019-05-11T09:06:28.436Z,995.90
2019-05-11T09:07:27.824Z,995.88
2019-05-11T09:08:28.267Z,995.92
2019-05-11T09:09:28.661Z,995.84
2019-05-11T09:10:28.135Z,995.83
2019-05-11T09:11:28.399Z,995.88
2019-05-11T09:12:28.704Z,995.78
2019-05-11T09:13:27.924Z,995.83
2019-05-11T09:14:31.482Z,995.83
2019-05-11T09:15:36.250Z,995.88
2019-05-11T09:16:29.116Z,995.74
2019-05-11T09:17:28.751Z,995.75
2019-05-11T09:18:27.971Z,995.77
2019-05-11T09:19:28.510Z,995.82
2019-05-11T09:20:28.476Z,995.79
2019-05-11T09:21:28.116Z,995.82
2019-05-11T09:22:28.339Z,995.84
2019-05-11T09:23:34.543Z,995.92
2019-05-11T09:24:28.158Z,995.93
2019-05-11T09:25:31.384Z,995.95
2019-05-11T09:26:28.475Z,996.01
2019-05-11T09:27:28.450Z,995.98
2019-05-11T09:28:26.302Z,995.99
2019-05-11T09:29:28.125Z,995.99
2019-05-11T09:30:28.642Z,996.01
2019-05-11T09:31:27.974Z,996.05
2019-05-11T09:32:28.331Z,996.06
2019-05-11T09:33:28.177Z,996.02
2019-05-11T09:34:28.647Z,996.03
2019-05-11T09:35:26.220Z,996.08
2019-05-11T09:36:31.263Z,996.21
2019-05-11T09:37:27.744Z,996.23
2019-05-11T09:38:27.765Z,996.20
2019-05-11T09:39:28.031Z,996.25
2019-05-11T09:40:28.232Z,996.32
2019-05-11T09:41:26.164Z,996.32
2019-05-11T09:42:28.400Z,996.26
2019-05-11T09:43:28.276Z,996.25
2019-05-11T09:44:28.605Z,996.28
2019-05-11T09:45:27.808Z,996.32
2019-05-11T09:46:27.905Z,996.37
2019-05-11T09:47:31.110Z,996.31
2019-05-11T09:48:28.247Z,996.37
2019-05-11T09:49:43.506Z,996.34
2019-05-11T09:50:28.362Z,996.34
2019-05-11T09:51:28.567Z,996.33
2019-05-11T09:52:27.572Z,996.37
2019-05-11T09:53:28.174Z,996.38
2019-05-11T09:54:26.010Z,996.52
2019-05-11T09:55:28.115Z,996.37
2019-05-11T09:56:26.008Z,996.34
2019-05-11T09:57:27.647Z,996.39
2019-05-11T09:58:30.990Z,996.41
2019-05-11T09:59:28.126Z,996.40
2019-05-11T10:00:28.108Z,996.34
2019-05-11T10:01:25.957Z,996.41
2019-05-11T10:02:27.998Z,996.43
2019-05-11T10:03:28.019Z,996.40
2019-05-11T10:04:25.897Z,996.57
2019-05-11T10:05:28.440Z,996.59
2019-05-11T10:06:28.067Z,996.64
2019-05-11T10:07:25.875Z,996.63
2019-05-11T10:08:25.875Z,996.58
2019-05-11T10:09:30.866Z,996.67
2019-05-11T10:10:25.836Z,996.63
2019-05-11T10:11:28.099Z,996.69
2019-05-11T10:12:25.810Z,996.62
2019-05-11T10:13:27.772Z,996.69
2019-05-11T10:14:25.822Z,996.79
2019-05-11T10:15:27.867Z,996.74
2019-05-11T10:16:27.902Z,996.84
2019-05-11T10:17:25.774Z,996.81
2019-05-11T10:18:27.992Z,996.81
2019-05-11T10:19:28.217Z,996.82
2019-05-11T10:20:30.849Z,996.95
2019-05-11T10:21:27.421Z,996.81
2019-05-11T10:22:27.773Z,996.90
2019-05-11T10:23:27.904Z,996.86
2019-05-11T10:24:28.140Z,996.83
2019-05-11T10:25:25.666Z,996.85
2019-05-11T10:26:27.268Z,996.88
2019-05-11T10:27:27.885Z,996.87
2019-05-11T10:28:25.631Z,996.81
2019-05-11T10:29:25.623Z,996.78
2019-05-11T10:30:27.819Z,996.88
2019-05-11T10:31:30.629Z,996.79
2019-05-11T10:32:25.596Z,996.86
2019-05-11T10:33:27.979Z,996.85
2019-05-11T10:34:25.567Z,996.81
2019-05-11T10:35:25.554Z,996.86
2019-05-11T10:36:27.842Z,996.87
2019-05-11T10:37:25.551Z,996.85
2019-05-11T10:38:25.531Z,996.85
2019-05-11T10:39:27.710Z,996.92
2019-05-11T10:40:27.505Z,996.87
2019-05-11T10:41:25.488Z,996.86
2019-05-11T10:42:30.550Z,996.93
2019-05-11T10:43:25.476Z,996.88
2019-05-11T10:44:27.916Z,996.87
2019-05-11T10:45:25.451Z,996.87
2019-05-11T10:46:25.439Z,996.84
2019-05-11T10:47:27.658Z,996.83
2019-05-11T10:48:25.406Z,996.78
2019-05-11T10:49:25.397Z,996.89
2019-05-11T10:50:25.390Z,996.83
2019-05-11T10:51:25.377Z,996.84
2019-05-11T10:52:25.375Z,996.87
2019-05-11T10:53:30.380Z,996.82
2019-05-11T10:54:28.457Z,996.70
2019-05-11T10:55:25.333Z,996.68
2019-05-11T10:56:25.320Z,996.74
2019-05-11T10:57:25.321Z,996.72
2019-05-11T10:58:25.296Z,996.67
2019-05-11T10:59:27.962Z,996.58
2019-05-11T11:00:25.281Z,996.64
2019-05-11T11:01:25.270Z,996.61
2019-05-11T11:02:27.331Z,996.59
2019-05-11T11:03:25.241Z,996.66
2019-05-11T11:04:30.262Z,996.68
2019-05-11T11:05:25.217Z,996.61
2019-05-11T11:06:25.207Z,996.64
2019-05-11T11:07:25.214Z,996.67
2019-05-11T11:08:25.186Z,996.69
2019-05-11T11:09:25.200Z,996.72
2019-05-11T11:10:25.161Z,996.76
2019-05-11T11:11:27.615Z,996.70
2019-05-11T11:12:25.157Z,996.75
2019-05-11T11:13:25.129Z,996.77
2019-05-11T11:14:25.119Z,996.73
2019-05-11T11:15:30.136Z,996.78
2019-05-11T11:16:36.785Z,996.75
2019-05-11T11:17:28.577Z,996.72
2019-05-11T11:18:25.082Z,996.83
2019-05-11T11:19:25.061Z,996.79
2019-05-11T11:20:25.050Z,996.84
2019-05-11T11:21:25.050Z,996.86
2019-05-11T11:22:36.968Z,996.82
2019-05-11T11:23:28.338Z,996.85
2019-05-11T11:24:25.019Z,996.90
2019-05-11T11:25:24.996Z,996.93
2019-05-11T11:26:30.007Z,996.84
2019-05-11T11:27:24.978Z,996.87
2019-05-11T11:28:24.976Z,996.86
2019-05-11T11:29:24.951Z,996.88
2019-05-11T11:30:24.958Z,996.80
2019-05-11T11:31:24.928Z,996.78
2019-05-11T11:32:24.917Z,996.83
2019-05-11T11:33:24.922Z,996.85
2019-05-11T11:34:24.896Z,996.86
2019-05-11T11:35:24.891Z,996.83
2019-05-11T11:36:24.956Z,996.78
2019-05-11T11:37:29.888Z,996.73
2019-05-11T11:38:24.868Z,996.81
2019-05-11T11:39:24.855Z,996.79
2019-05-11T11:40:24.828Z,996.79
2019-05-11T11:41:24.817Z,996.79
2019-05-11T11:42:24.816Z,996.84
2019-05-11T11:43:24.809Z,996.81
2019-05-11T11:44:24.789Z,996.90
2019-05-11T11:45:24.773Z,997.03
2019-05-11T11:46:24.760Z,997.13
2019-05-11T11:47:24.753Z,997.44
2019-05-11T11:48:29.772Z,997.41
2019-05-11T11:49:24.731Z,997.14
2019-05-11T11:50:24.722Z,997.14
2019-05-11T11:51:24.711Z,997.18
2019-05-11T11:52:24.695Z,997.23
2019-05-11T11:53:24.695Z,997.22
2019-05-11T11:54:24.673Z,997.23
2019-05-11T11:55:24.665Z,997.22
2019-05-11T11:56:24.652Z,997.32
2019-05-11T11:57:24.647Z,997.74
2019-05-11T11:58:24.640Z,997.39
2019-05-11T11:59:29.649Z,997.30
2019-05-11T12:00:24.617Z,997.28
2019-05-11T12:01:24.607Z,997.41
2019-05-11T12:02:24.587Z,997.38
2019-05-11T12:03:24.608Z,997.41
2019-05-11T12:04:24.575Z,997.47
2019-05-11T12:05:24.558Z,997.59
2019-05-11T12:06:24.543Z,997.61
2019-05-11T12:07:24.531Z,997.70
2019-05-11T12:08:24.534Z,997.68
2019-05-11T12:09:24.508Z,997.67
2019-05-11T12:10:29.529Z,997.69
2019-05-11T12:11:24.501Z,997.65
2019-05-11T12:12:24.477Z,997.64
2019-05-11T12:13:26.599Z,997.66
2019-05-11T12:14:24.462Z,997.67
2019-05-11T12:15:24.441Z,997.75
2019-05-11T12:16:24.430Z,997.94
2019-05-11T12:17:24.443Z,997.90
2019-05-11T12:18:24.411Z,997.86
2019-05-11T12:19:24.423Z,997.92
2019-05-11T12:20:24.392Z,997.96
2019-05-11T12:21:29.397Z,997.85
2019-05-11T12:22:24.367Z,997.82
2019-05-11T12:23:24.352Z,997.86
2019-05-11T12:24:24.353Z,997.82
2019-05-11T12:25:24.329Z,997.85
2019-05-11T12:26:24.318Z,997.92
2019-05-11T12:27:24.307Z,997.94
2019-05-11T12:28:24.297Z,998.01